Time;durP1;ratioP1;P1;durP2;ratioP2;P2;SDS_P1;SDS_P2;PMS_P1;PMS_P2;Temp;Humidity;BMP_temperature;BMP_pressure;BME280_temperature;BME280_humidity;BME280_pressure;Samples;Min_cycle;Max_cycle;Signal;HPM_P1;HPM_P2
2021/11/19 00:00:11;;;;;;;54.33;25.88;;;;;;;9.83;100.00;102235.28;5027578;28;20162;-88
2021/11/19 00:02:37;;;;;;;50.17;24.27;;;;;;;9.83;100.00;102241.50;5047707;28;20511;-88
2021/11/19 00:05:03;;;;;;;49.53;26.98;;;;;;;9.83;100.00;102243.34;5046789;28;20068;-88
2021/11/19 00:07:29;;;;;;;52.30;26.65;;;;;;;9.82;100.00;102241.66;5032700;28;20046;-88
2021/11/19 00:09:54;;;;;;;51.85;27.02;;;;;;;9.83;100.00;102254.06;5042152;28;20403;-88
2021/11/19 00:12:20;;;;;;;56.67;27.52;;;;;;;9.85;100.00;102244.06;5036985;28;20064;-88
2021/11/19 00:14:45;;;;;;;55.88;26.88;;;;;;;9.84;100.00;102253.06;5044469;28;20041;-89
2021/11/19 00:17:12;;;;;;;52.63;27.48;;;;;;;9.86;100.00;102256.50;5024413;28;20040;-88
2021/11/19 00:19:42;;;;;;;46.42;26.33;;;;;;;9.86;100.00;102246.63;5030193;28;20128;-89
2021/11/19 00:22:11;;;;;;;55.30;27.20;;;;;;;9.87;100.00;102247.50;5028952;28;20049;-87
2021/11/19 00:24:37;;;;;;;52.13;28.92;;;;;;;9.89;100.00;102234.78;5033519;28;20065;-88
2021/11/19 00:27:05;;;;;;;48.10;27.27;;;;;;;9.88;100.00;102241.16;5055304;28;20043;-88
2021/11/19 00:29:30;;;;;;;48.03;27.15;;;;;;;9.86;100.00;102246.63;5041243;28;20783;-88
2021/11/19 00:31:56;;;;;;;53.22;25.33;;;;;;;9.87;100.00;102248.34;5058626;28;20064;-88
2021/11/19 00:34:23;;;;;;;52.03;27.13;;;;;;;9.87;100.00;102242.13;5058646;28;20044;-89
2021/11/19 00:36:49;;;;;;;51.67;27.02;;;;;;;9.88;100.00;102239.31;5044486;28;20051;-87
2021/11/19 00:39:17;;;;;;;50.72;25.83;;;;;;;9.88;100.00;102239.31;5048334;28;20037;-88
2021/11/19 00:41:44;;;;;;;50.22;28.88;;;;;;;9.89;100.00;102240.16;5060598;28;20076;-88
2021/11/19 00:44:11;;;;;;;54.65;28.60;;;;;;;9.90;100.00;102241.88;5041079;28;20069;-88
2021/11/19 00:46:38;;;;;;;48.20;26.13;;;;;;;9.91;100.00;102243.56;5033310;28;20934;-85
2021/11/19 00:49:04;;;;;;;46.35;25.17;;;;;;;9.91;100.00;102243.56;5023712;28;20045;-88
2021/11/19 00:51:35;;;;;;;51.70;24.30;;;;;;;9.92;100.00;102242.59;5033332;28;21090;-88
2021/11/19 00:54:01;;;;;;;47.60;26.27;;;;;;;9.93;100.00;102252.34;5042016;28;20079;-89
2021/11/19 00:56:30;;;;;;;49.17;26.83;;;;;;;9.94;100.00;102260.25;5055427;28;20061;-88
2021/11/19 00:58:57;;;;;;;52.63;26.63;;;;;;;9.94;100.00;102270.13;5059497;28;20043;-87
2021/11/19 01:01:31;;;;;;;50.50;26.00;;;;;;;9.96;100.00;102276.25;5046342;28;20033;-88
2021/11/19 01:03:58;;;;;;;56.03;31.73;;;;;;;9.98;100.00;102265.38;5042752;28;20071;-88
2021/11/19 01:06:24;;;;;;;55.00;27.92;;;;;;;9.98;100.00;102266.22;5032131;28;20053;-88
2021/11/19 01:08:50;;;;;;;49.80;29.08;;;;;;;9.98;100.00;102274.25;5023209;28;20075;-88
2021/11/19 01:11:17;;;;;;;53.60;26.88;;;;;;;9.98;100.00;102260.84;5040648;28;20045;-87
2021/11/19 01:13:46;;;;;;;50.28;26.50;;;;;;;9.97;100.00;102263.69;5036858;28;20053;-88
2021/11/19 01:16:24;;;;;;;51.28;28.38;;;;;;;9.98;100.00;102266.22;5018766;28;20044;-88
2021/11/19 01:18:59;;;;;;;53.38;27.88;;;;;;;9.97;100.00;102264.53;5040839;28;20068;-88
2021/11/19 01:21:34;;;;;;;50.22;28.92;;;;;;;9.98;100.00;102281.47;5028279;28;20044;-89
2021/11/19 01:24:00;;;;;;;53.58;28.35;;;;;;;9.98;100.00;102273.41;5055068;28;20049;-88
2021/11/19 01:26:34;;;;;;;56.70;28.08;;;;;;;9.99;100.00;102281.34;5036903;28;20033;-86
2021/11/19 01:29:03;;;;;;;57.17;27.88;;;;;;;9.99;100.00;102284.03;5050404;28;20041;-88
2021/11/19 01:31:33;;;;;;;55.50;27.67;;;;;;;10.00;100.00;102284.88;5057864;28;20102;-89
2021/11/19 01:34:00;;;;;;;51.72;27.85;;;;;;;9.98;100.00;102285.00;5043251;28;20051;-89
2021/11/19 01:36:25;;;;;;;59.25;30.98;;;;;;;10.01;100.00;102281.22;5033923;28;20488;-88
2021/11/19 01:38:54;;;;;;;54.03;30.85;;;;;;;10.02;100.00;102277.56;5051708;28;20045;-89
2021/11/19 01:41:33;;;;;;;53.75;29.70;;;;;;;10.01;100.00;102267.81;5031413;28;20037;-89
2021/11/19 01:44:00;;;;;;;53.35;28.65;;;;;;;10.01;100.00;102262.44;5022793;28;20049;-86
2021/11/19 01:46:29;;;;;;;57.83;27.50;;;;;;;10.01;100.00;102271.34;5029891;28;20737;-88
2021/11/19 01:48:56;;;;;;;49.92;28.05;;;;;;;10.02;100.00;102273.06;5021369;28;20044;-88
2021/11/19 01:51:55;;;;;;;61.65;33.50;;;;;;;10.02;100.00;102265.00;5024368;28;20037;-88
2021/11/19 01:54:44;;;;;;;;;;;;;;;10.03;100.00;102279.25;5015508;28;20112;-88
2021/11/19 01:57:22;;;;;;;56.65;27.55;;;;;;;9.94;100.00;102270.97;5039753;28;20438;-88
2021/11/19 02:00:03;;;;;;;58.33;31.30;;;;;;;9.95;100.00;102274.50;4999172;28;20152;-89
2021/11/19 02:02:36;;;;;;;55.13;31.15;;;;;;;9.98;100.00;102266.22;5041291;28;20037;-87
2021/11/19 02:05:19;;;;;;;59.20;33.67;;;;;;;10.00;100.00;102258.91;5042642;28;20037;-88
2021/11/19 02:07:48;;;;;;;58.75;34.70;;;;;;;10.01;100.00;102260.63;5008445;28;20033;-88
2021/11/19 02:10:32;;;;;;;;;;;;;;;10.02;100.00;102256.13;5011997;28;20075;-88
2021/11/19 02:12:58;;;;;;;65.97;34.90;;;;;;;9.94;100.00;102249.53;5039682;28;19943;-88
2021/11/19 02:15:34;;;;;;;64.00;35.40;;;;;;;9.96;100.00;102245.91;5041782;28;20501;-88
2021/11/19 02:18:08;;;;;;;62.72;33.88;;;;;;;9.96;100.00;102241.38;5060921;28;20037;-88
2021/11/19 02:20:47;;;;;;;63.13;35.83;;;;;;;9.97;100.00;102229.66;5057586;28;20033;-88
2021/11/19 02:23:19;;;;;;;66.00;35.40;;;;;;;9.97;100.00;102243.06;5035350;28;20048;-88
2021/11/19 02:25:54;;;;;;;64.75;36.00;;;;;;;9.98;100.00;102235.88;5051352;28;20467;-88
2021/11/19 02:28:25;;;;;;;59.10;32.25;;;;;;;9.95;100.00;102234.28;5058145;28;20446;-88
2021/11/19 02:31:07;;;;;;;68.50;37.72;;;;;;;9.97;100.00;102220.78;5044097;28;20047;-87
2021/11/19 02:33:33;;;;;;;67.80;38.58;;;;;;;9.95;100.00;102228.94;5052217;28;20143;-88
2021/11/19 02:36:04;;;;;;;66.18;37.63;;;;;;;9.95;100.00;102226.25;5019262;28;20445;-88
2021/11/19 02:38:40;;;;;;;68.63;35.15;;;;;;;9.98;100.00;102236.72;4989930;28;20070;-89
2021/11/19 02:41:06;;;;;;;67.20;37.60;;;;;;;9.97;100.00;102237.72;5008899;28;20053;-88
2021/11/19 02:43:42;;;;;;;74.60;38.13;;;;;;;9.97;100.00;102235.03;4994779;28;20049;-87
2021/11/19 02:46:16;;;;;;;77.07;41.53;;;;;;;9.99;100.00;102240.28;4994701;28;20423;-87
2021/11/19 02:48:41;;;;;;;77.53;38.63;;;;;;;9.97;100.00;102242.22;5005930;28;20061;-88
2021/11/19 02:51:09;;;;;;;75.65;40.33;;;;;;;9.98;100.00;102238.56;5009330;28;20073;-88
2021/11/19 02:53:36;;;;;;;73.70;35.50;;;;;;;9.97;100.00;102245.75;4985572;28;20075;-89
2021/11/19 02:56:01;;;;;;;75.15;44.78;;;;;;;9.97;100.00;102248.44;4982372;28;20348;-89
2021/11/19 02:58:35;;;;;;;76.05;39.08;;;;;;;9.99;100.00;102234.91;4990210;28;20054;-86
2021/11/19 03:01:10;;;;;;;85.00;40.00;;;;;;;10.00;100.00;102253.53;5020081;28;20422;-88
2021/11/19 03:03:39;;;;;;;76.78;40.03;;;;;;;10.00;100.00;102225.88;5044212;28;20047;-88
2021/11/19 03:06:05;;;;;;;81.30;43.50;;;;;;;10.00;100.00;102247.34;5064901;28;20483;-87
2021/11/19 03:08:33;;;;;;;85.35;48.28;;;;;;;10.00;100.00;102247.34;5060361;28;20087;-88
2021/11/19 03:10:58;;;;;;;78.13;39.08;;;;;;;10.00;100.00;102242.81;5033160;28;20040;-87
2021/11/19 03:13:27;;;;;;;76.93;40.85;;;;;;;10.02;100.00;102251.59;5043138;28;20117;-88
2021/11/19 03:15:53;;;;;;;83.82;46.63;;;;;;;10.05;100.00;102256.72;5064753;28;20491;-86
2021/11/19 03:18:22;;;;;;;79.78;41.60;;;;;;;10.05;100.00;102245.97;5060893;28;20813;-89
2021/11/19 03:20:51;;;;;;;78.95;41.78;;;;;;;10.05;100.00;102248.66;5063726;28;20079;-88
2021/11/19 03:23:17;;;;;;;;;;;;;;;10.04;100.00;102256.81;5046881;28;20083;-85
2021/11/19 03:25:43;;;;;;;78.75;39.38;;;;;;;9.98;100.00;102247.44;5040821;28;19948;-88
2021/11/19 03:28:12;;;;;;;83.20;42.85;;;;;;;10.00;100.00;102250.00;5065463;28;20040;-88
2021/11/19 03:30:40;;;;;;;83.85;43.13;;;;;;;10.02;100.00;102254.28;5032251;28;20045;-88
2021/11/19 03:33:12;;;;;;;85.30;43.55;;;;;;;10.05;100.00;102256.72;5051816;28;20040;-86
2021/11/19 03:35:37;;;;;;;79.38;40.72;;;;;;;10.05;100.00;102254.03;5062693;28;20040;-87
2021/11/19 03:38:04;;;;;;;83.93;45.63;;;;;;;10.06;100.00;102247.69;5059421;28;20060;-87
2021/11/19 03:40:36;;;;;;;84.60;43.83;;;;;;;10.06;100.00;102247.69;5073162;28;20041;-87
2021/11/19 03:43:06;;;;;;;80.45;43.08;;;;;;;10.08;100.00;102250.25;5037865;28;20491;-86
2021/11/19 03:45:39;;;;;;;80.05;43.75;;;;;;;10.07;100.00;102254.75;5060559;28;20113;-89
2021/11/19 03:48:05;;;;;;;82.15;43.28;;;;;;;10.07;100.00;102253.88;5046494;28;20036;-88
2021/11/19 03:50:47;;;;;;;81.32;40.78;;;;;;;10.08;100.00;102255.63;5051036;28;20042;-87
2021/11/19 03:53:14;;;;;;;79.40;46.25;;;;;;;10.08;100.00;102261.81;5044808;28;20115;-88
2021/11/19 03:55:46;;;;;;;84.93;44.40;;;;;;;10.08;100.00;102251.09;5062868;28;20056;-86
2021/11/19 03:58:18;;;;;;;90.43;50.40;;;;;;;10.08;100.00;102252.94;5062031;28;20040;-88
2021/11/19 04:00:54;;;;;;;84.43;49.53;;;;;;;10.08;100.00;102264.50;5064721;28;20570;-88
2021/11/19 04:03:21;;;;;;;85.13;44.83;;;;;;;10.08;100.00;102263.66;5063646;28;20047;-88
2021/11/19 04:05:48;;;;;;;87.55;47.10;;;;;;;10.07;100.00;102254.75;5065654;28;20033;-88
2021/11/19 04:08:14;;;;;;;94.40;45.58;;;;;;;10.09;100.00;102262.66;5066284;28;20115;-88
2021/11/19 04:10:40;;;;;;;88.03;45.47;;;;;;;10.09;100.00;102263.50;5038317;28;20071;-89
2021/11/19 04:13:08;;;;;;;83.85;46.67;;;;;;;10.09;100.00;102258.16;5036523;28;20040;-88
2021/11/19 04:15:42;;;;;;;91.25;45.75;;;;;;;10.09;100.00;102257.31;5047863;28;20043;-88
2021/11/19 04:18:07;;;;;;;93.53;42.63;;;;;;;10.07;100.00;102261.94;5060536;28;20460;-88
2021/11/19 04:20:33;;;;;;;86.13;47.92;;;;;;;10.07;100.00;102269.97;5061720;28;20036;-88
2021/11/19 04:22:58;;;;;;;92.45;46.03;;;;;;;10.08;100.00;102256.47;5046818;28;20032;-87
2021/11/19 04:25:25;;;;;;;93.25;45.03;;;;;;;10.08;100.00;102251.09;5025639;28;20071;-87
2021/11/19 04:27:52;;;;;;;91.15;43.78;;;;;;;10.08;100.00;102256.47;5004276;28;20046;-87
2021/11/19 04:30:22;;;;;;;88.72;43.20;;;;;;;10.09;100.00;102263.50;4971329;28;20039;-88
2021/11/19 04:32:49;;;;;;;90.13;43.88;;;;;;;10.10;100.00;102259.03;4981574;28;20042;-88
2021/11/19 04:35:15;;;;;;;92.28;43.42;;;;;;;10.10;100.00;102242.94;5017581;28;20577;-88
2021/11/19 04:37:41;;;;;;;94.30;47.97;;;;;;;10.09;100.00;102251.94;4972593;28;20056;-85
2021/11/19 04:40:07;;;;;;;97.13;46.65;;;;;;;10.09;100.00;102251.94;5011792;28;20038;-88
2021/11/19 04:42:34;;;;;;;101.38;45.88;;;;;;;10.08;100.00;102256.47;5003397;28;20136;-88
2021/11/19 04:45:00;;;;;;;94.15;47.20;;;;;;;10.08;100.00;102256.47;4982248;28;20057;-87
2021/11/19 04:47:25;;;;;;;93.55;50.10;;;;;;;10.07;100.00;102254.75;4998761;28;20131;-88
2021/11/19 04:50:01;;;;;;;101.75;52.95;;;;;;;10.09;100.00;102255.47;5005635;28;20954;-85
2021/11/19 04:52:27;;;;;;;106.93;53.25;;;;;;;10.09;100.00;102251.94;5008129;28;20047;-89
2021/11/19 04:54:52;;;;;;;108.15;53.33;;;;;;;10.09;100.00;102247.41;5047212;28;20043;-88
2021/11/19 04:57:18;;;;;;;109.07;52.88;;;;;;;10.09;100.00;102251.94;5024014;28;20044;-88
2021/11/19 04:59:44;;;;;;;94.10;49.78;;;;;;;10.07;100.00;102244.03;5065786;28;20403;-87
2021/11/19 05:02:14;;;;;;;101.10;47.92;;;;;;;10.08;100.00;102255.63;5047776;28;20529;-88
2021/11/19 05:04:40;;;;;;;110.38;49.90;;;;;;;10.09;100.00;102242.06;5059004;28;20125;-88
2021/11/19 05:10:41;;;;;;;105.45;49.20;;;;;;;10.07;100.00;102246.72;4918106;28;20036;-88
2021/11/19 05:13:08;;;;;;;109.78;53.00;;;;;;;10.08;100.00;102258.28;4907513;28;20154;-88
2021/11/19 05:15:34;;;;;;;111.28;50.95;;;;;;;10.09;100.00;102255.47;4959068;28;20054;-88
2021/11/19 05:18:00;;;;;;;110.70;55.55;;;;;;;10.10;100.00;102251.84;4941444;28;20542;-87
2021/11/19 05:20:26;;;;;;;99.78;46.38;;;;;;;10.09;100.00;102241.22;4945643;28;20081;-87
2021/11/19 05:22:54;;;;;;;106.97;48.40;;;;;;;10.10;100.00;102254.50;4936477;28;20071;-88
2021/11/19 05:25:22;;;;;;;114.10;55.80;;;;;;;10.11;100.00;102258.03;4927736;28;20494;-88
2021/11/19 05:27:49;;;;;;;110.55;53.97;;;;;;;10.12;100.00;102257.06;4928866;28;20062;-87
2021/11/19 05:30:16;;;;;;;102.75;50.35;;;;;;;10.11;100.00;102250.84;4933407;28;20047;-88
2021/11/19 05:32:42;;;;;;;108.90;56.10;;;;;;;10.11;100.00;102256.22;4958708;28;20552;-88
2021/11/19 05:35:09;;;;;;;109.60;55.25;;;;;;;10.10;100.00;102251.84;4960683;28;20035;-88
2021/11/19 05:37:36;;;;;;;97.72;48.35;;;;;;;10.10;100.00;102250.97;4962630;28;20128;-87
2021/11/19 05:40:05;;;;;;;113.25;58.50;;;;;;;10.10;100.00;102243.78;4990434;28;20114;-88
2021/11/19 05:42:31;;;;;;;108.15;55.40;;;;;;;10.11;100.00;102247.31;4993179;28;20057;-88
2021/11/19 05:44:56;;;;;;;99.32;49.08;;;;;;;10.11;100.00;102233.91;4998262;28;20041;-88
2021/11/19 05:47:22;;;;;;;117.20;57.15;;;;;;;10.11;100.00;102239.25;4998900;28;20128;-88
2021/11/19 05:49:47;;;;;;;108.18;52.65;;;;;;;10.10;100.00;102249.16;4999959;28;20052;-86
2021/11/19 05:52:13;;;;;;;115.50;58.20;;;;;;;10.11;100.00;102236.59;4998739;28;20091;-87
2021/11/19 05:54:40;;;;;;;109.97;56.70;;;;;;;10.11;100.00;102241.94;5002335;28;20069;-88
2021/11/19 05:57:08;;;;;;;123.20;54.00;;;;;;;10.11;100.00;102253.53;5003088;28;20583;-88
2021/11/19 05:59:35;;;;;;;117.35;50.40;;;;;;;10.11;100.00;102250.84;4999291;28;20041;-87
2021/11/19 06:02:06;;;;;;;115.40;54.72;;;;;;;10.12;100.00;102254.38;4984771;28;20052;-88
2021/11/19 06:04:31;;;;;;;111.30;55.80;;;;;;;10.12;100.00;102255.22;5058020;28;20044;-87
2021/11/19 06:06:57;;;;;;;108.63;50.95;;;;;;;10.12;100.00;102263.25;5065768;28;20047;-88
2021/11/19 06:09:30;;;;;;;119.65;54.38;;;;;;;10.12;100.00;102267.78;5046549;28;20063;-87
2021/11/19 06:12:02;;;;;;;111.68;50.35;;;;;;;10.12;100.00;102268.63;5061700;28;20060;-87
2021/11/19 06:14:36;;;;;;;112.53;57.35;;;;;;;10.12;100.00;102265.09;5039144;28;20047;-87
2021/11/19 06:17:08;;;;;;;115.68;50.75;;;;;;;10.11;100.00;102272.31;5061455;28;20044;-87
2021/11/19 06:19:45;;;;;;;120.63;57.78;;;;;;;10.11;100.00;102274.97;5038461;28;20165;-87
2021/11/19 06:22:15;;;;;;;115.07;52.53;;;;;;;10.11;100.00;102280.34;5044092;28;20044;-87
2021/11/19 06:24:44;;;;;;;123.25;55.88;;;;;;;10.11;100.00;102280.34;5059248;28;20093;-86
2021/11/19 06:27:12;;;;;;;120.43;51.25;;;;;;;10.10;100.00;102278.66;5043598;28;20075;-86
2021/11/19 06:29:37;;;;;;;130.68;52.83;;;;;;;10.10;100.00;102275.97;5040898;28;20049;-87
2021/11/19 06:32:03;;;;;;;133.13;61.08;;;;;;;10.11;100.00;102274.97;5038060;28;20044;-87
2021/11/19 06:34:29;;;;;;;126.03;56.85;;;;;;;10.11;100.00;102276.81;5016522;28;20052;-87
2021/11/19 06:36:56;;;;;;;142.18;64.60;;;;;;;10.11;100.00;102272.31;5041317;28;20041;-86
2021/11/19 06:39:23;;;;;;;132.98;60.15;;;;;;;10.11;100.00;102272.31;5019392;28;20041;-89
2021/11/19 06:41:49;;;;;;;130.38;55.15;;;;;;;10.11;100.00;102285.72;5027229;28;20056;-90
2021/11/19 06:44:14;;;;;;;137.93;58.63;;;;;;;10.09;100.00;102278.75;5052050;28;20148;-86
2021/11/19 06:46:40;;;;;;;136.10;56.42;;;;;;;10.10;100.00;102280.50;5036543;28;20033;-86
2021/11/19 06:49:07;;;;;;;125.35;51.13;;;;;;;10.08;100.00;102291.31;5019732;28;20044;-88
2021/11/19 06:51:33;;;;;;;131.50;61.22;;;;;;;10.08;100.00;102283.28;5006675;28;20041;-87
2021/11/19 06:53:58;;;;;;;133.95;60.58;;;;;;;10.09;100.00;102298.38;5020239;28;20051;-87
2021/11/19 06:56:24;;;;;;;141.30;59.95;;;;;;;10.10;100.00;102297.44;5044927;28;20720;-87
2021/11/19 06:58:50;;;;;;;131.02;54.35;;;;;;;10.09;100.00;102284.97;5030569;28;20069;-87
2021/11/19 07:01:17;;;;;;;129.63;60.67;;;;;;;10.08;100.00;102288.66;5043691;28;20044;-88
2021/11/19 07:03:43;;;;;;;140.32;61.17;;;;;;;10.10;100.00;102285.84;5066351;28;20078;-88
2021/11/19 07:06:08;;;;;;;139.52;61.97;;;;;;;10.10;100.00;102302.78;5050010;28;20076;-88
2021/11/19 07:08:34;;;;;;;142.82;54.22;;;;;;;10.11;100.00;102293.75;5053695;28;20107;-88
2021/11/19 07:11:04;;;;;;;140.65;62.42;;;;;;;10.12;100.00;102297.28;5030041;28;20135;-88
2021/11/19 07:13:30;;;;;;;146.07;60.67;;;;;;;10.11;100.00;102293.75;5029323;28;20096;-88
2021/11/19 07:15:56;;;;;;;138.15;60.42;;;;;;;10.12;100.00;102297.28;5041838;28;20056;-87
2021/11/19 07:18:22;;;;;;;152.07;64.60;;;;;;;10.12;100.00;102292.78;5031732;28;20044;-88
2021/11/19 07:20:49;;;;;;;144.98;57.67;;;;;;;10.15;100.00;102300.56;5039941;28;20136;-90
2021/11/19 07:23:15;;;;;;;140.23;59.42;;;;;;;10.14;100.00;102295.34;5049157;28;20037;-89
2021/11/19 07:25:41;;;;;;;143.40;57.00;;;;;;;10.14;100.00;102293.50;5049201;28;20111;-89
2021/11/19 07:28:08;;;;;;;150.10;61.25;;;;;;;10.15;100.00;102302.41;5053414;28;20051;-89
2021/11/19 07:30:42;;;;;;;143.35;62.72;;;;;;;10.14;100.00;102301.56;5065610;28;20041;-89
2021/11/19 07:33:08;;;;;;;149.65;59.47;;;;;;;10.16;100.00;102307.66;5064424;28;20045;-89
2021/11/19 07:35:35;;;;;;;142.38;63.22;;;;;;;10.15;100.00;102305.09;5069421;28;20079;-89
2021/11/19 07:38:01;;;;;;;141.90;56.50;;;;;;;10.15;100.00;102313.97;5062471;28;20080;-89
2021/11/19 07:40:29;;;;;;;137.68;56.88;;;;;;;10.15;100.00;102308.63;5063328;28;20064;-91
2021/11/19 07:42:55;;;;;;;141.20;65.97;;;;;;;10.16;100.00;102318.38;5032601;28;20057;-90
2021/11/19 07:45:22;;;;;;;135.38;57.58;;;;;;;10.15;100.00;102316.66;5048303;28;20040;-90
2021/11/19 07:47:50;;;;;;;139.50;59.20;;;;;;;10.17;100.00;102320.09;5032752;28;20575;-90
2021/11/19 07:50:20;;;;;;;132.02;54.05;;;;;;;10.15;100.00;102322.03;5033186;28;20049;-89
2021/11/19 07:52:46;;;;;;;144.50;57.42;;;;;;;10.16;100.00;102318.38;5032373;28;20037;-89
2021/11/19 07:55:12;;;;;;;132.63;53.65;;;;;;;10.17;100.00;102324.59;5032118;28;20044;-89
2021/11/19 07:57:38;;;;;;;136.60;61.45;;;;;;;10.18;100.00;102328.97;5031386;28;20532;-90
2021/11/19 08:00:11;;;;;;;134.43;55.55;;;;;;;10.19;100.00;102332.53;5032008;28;20044;-90
2021/11/19 08:02:37;;;;;;;141.68;56.00;;;;;;;10.19;100.00;102325.34;5049555;28;20139;-89
2021/11/19 08:05:05;;;;;;;137.18;64.80;;;;;;;10.18;100.00;102331.66;5049325;28;20123;-90
2021/11/19 08:07:31;;;;;;;138.95;59.42;;;;;;;10.21;100.00;102333.25;5047882;28;20040;-90
2021/11/19 08:09:58;;;;;;;136.50;57.65;;;;;;;10.23;100.00;102336.66;5048449;28;20045;-89
2021/11/19 08:12:23;;;;;;;140.77;56.72;;;;;;;10.22;100.00;102333.13;5048244;28;20048;-88
2021/11/19 08:14:49;;;;;;;138.65;57.42;;;;;;;10.22;100.00;102340.34;5048561;28;20033;-90
2021/11/19 08:17:26;;;;;;;131.98;56.55;;;;;;;10.21;100.00;102346.66;5032193;28;20051;-89
2021/11/19 08:19:52;;;;;;;139.07;61.42;;;;;;;10.22;100.00;102334.97;5030389;28;20041;-90
2021/11/19 08:22:17;;;;;;;136.77;57.70;;;;;;;10.23;100.00;102336.66;5030731;28;20037;-89
2021/11/19 08:24:44;;;;;;;142.88;60.55;;;;;;;10.23;100.00;102344.72;5011576;28;20483;-89
2021/11/19 08:27:15;;;;;;;137.57;65.25;;;;;;;10.23;100.00;102336.66;5028632;28;20159;-89
2021/11/19 08:29:43;;;;;;;130.35;58.88;;;;;;;10.24;100.00;102341.03;5027938;28;20606;-89
2021/11/19 08:32:10;;;;;;;137.95;59.60;;;;;;;10.23;100.00;102340.19;5033989;28;20049;-90
2021/11/19 08:34:36;;;;;;;143.02;59.92;;;;;;;10.25;100.00;102338.25;5045915;28;20075;-88
2021/11/19 08:37:02;;;;;;;136.25;62.10;;;;;;;10.26;100.00;102344.47;5048829;28;20045;-89
2021/11/19 08:39:28;;;;;;;133.70;56.85;;;;;;;10.26;100.00;102339.09;5046279;28;20053;-89
2021/11/19 08:41:55;;;;;;;136.63;57.83;;;;;;;10.24;100.00;102336.56;5048524;28;20049;-89
2021/11/19 08:44:21;;;;;;;128.32;54.42;;;;;;;10.25;100.00;102340.94;5047483;28;20045;-89
2021/11/19 08:46:49;;;;;;;127.65;52.13;;;;;;;10.25;100.00;102345.44;5050078;28;20040;-92
2021/11/19 08:49:18;;;;;;;136.68;59.40;;;;;;;10.27;100.00;102338.13;5049600;28;20041;-91
2021/11/19 08:51:45;;;;;;;137.77;55.88;;;;;;;10.27;100.00;102344.38;5066768;28;20037;-92
2021/11/19 08:54:12;;;;;;;142.75;62.10;;;;;;;10.28;100.00;102343.41;5051105;28;20037;-92
2021/11/19 08:56:41;;;;;;;135.13;62.42;;;;;;;10.29;100.00;102342.41;5041584;28;20041;-92
2021/11/19 08:59:09;;;;;;;123.72;55.17;;;;;;;10.28;100.00;102332.66;5052444;28;20477;-91
2021/11/19 09:01:38;;;;;;;137.70;61.33;;;;;;;10.30;100.00;102341.44;5050870;28;20068;-91
2021/11/19 09:04:05;;;;;;;133.48;61.65;;;;;;;10.32;100.00;102338.63;5060060;28;20041;-90
2021/11/19 09:06:31;;;;;;;122.32;55.85;;;;;;;10.31;100.00;102337.78;5042268;28;20072;-91
2021/11/19 09:08:57;;;;;;;126.57;58.58;;;;;;;10.33;100.00;102337.66;5065451;28;20056;-91
2021/11/19 09:11:25;;;;;;;131.57;61.17;;;;;;;10.35;100.00;102347.28;5058683;28;20564;-91
2021/11/19 09:13:54;;;;;;;127.30;58.33;;;;;;;10.37;100.00;102339.13;5065331;28;20462;-90
2021/11/19 09:16:22;;;;;;;129.60;56.88;;;;;;;10.37;100.00;102347.16;5064479;28;20041;-92
2021/11/19 09:19:25;;;;;;;124.15;56.20;;;;;;;10.37;100.00;102349.84;5048923;28;20041;-91
2021/11/19 09:21:59;;;;;;;121.60;57.38;;;;;;;10.38;100.00;102348.84;5048547;28;20120;-90
2021/11/19 09:24:31;;;;;;;114.72;50.55;;;;;;;10.38;100.00;102359.59;5046112;28;20046;-89
2021/11/19 09:27:09;;;;;;;114.95;52.72;;;;;;;10.39;100.00;102348.75;5036449;28;20044;-91
2021/11/19 09:29:43;;;;;;;116.82;53.55;;;;;;;10.39;100.00;102353.28;5047530;28;20147;-91
2021/11/19 09:32:11;;;;;;;122.75;54.60;;;;;;;10.42;100.00;102354.84;5049769;28;20076;-90
2021/11/19 09:34:41;;;;;;;124.13;59.07;;;;;;;10.45;100.00;102360.81;5048189;28;20052;-90
2021/11/19 09:37:11;;;;;;;119.97;51.83;;;;;;;10.46;100.00;102351.78;5049031;28;20044;-91
2021/11/19 09:39:42;;;;;;;118.30;52.80;;;;;;;10.48;100.00;102357.03;5057823;28;20483;-90
2021/11/19 09:42:31;;;;;;;109.40;53.60;;;;;;;10.48;100.00;102357.88;5064825;28;20041;-91
2021/11/19 09:45:24;;;;;;;113.68;50.47;;;;;;;10.49;100.00;102362.25;5031436;28;20103;-91
2021/11/19 09:48:02;;;;;;;107.05;53.15;;;;;;;10.50;100.00;102357.72;5065025;28;20072;-91
2021/11/19 09:51:04;;;;;;;117.07;55.35;;;;;;;10.52;100.00;102356.63;5064923;28;20051;-91
2021/11/19 09:54:01;;;;;;;108.85;51.70;;;;;;;10.54;100.00;102365.41;5064969;28;20037;-91
2021/11/19 09:56:51;;;;;;;109.72;48.60;;;;;;;10.55;100.00;102360.91;5038266;28;20711;-91
2021/11/19 09:59:43;;;;;;;103.75;46.20;;;;;;;10.56;100.00;102362.63;5042304;28;20052;-90
2021/11/19 10:02:08;;;;;;;106.82;47.05;;;;;;;10.60;100.00;102362.22;5051887;28;20045;-90
2021/11/19 10:05:11;;;;;;;101.40;50.30;;;;;;;10.63;100.00;102357.59;5069138;28;20526;-91
2021/11/19 10:07:54;;;;;;;102.90;51.08;;;;;;;10.66;100.00;102368.94;5008263;28;20053;-91
2021/11/19 10:10:19;;;;;;;96.55;45.55;;;;;;;10.69;100.00;102371.34;5047383;28;20045;-90
2021/11/19 10:12:51;;;;;;;99.25;48.60;;;;;;;10.71;100.00;102363.19;5049172;28;20128;-91
2021/11/19 10:15:22;;;;;;;96.55;49.13;;;;;;;10.73;100.00;102361.22;5056092;28;20060;-91
2021/11/19 10:17:50;;;;;;;94.93;47.53;;;;;;;10.77;100.00;102357.31;5053484;28;20045;-91
2021/11/19 10:20:25;;;;;;;83.60;40.83;;;;;;;10.81;100.00;102356.06;5054899;28;20041;-91
2021/11/19 10:23:09;;;;;;;87.57;45.92;;;;;;;10.82;100.00;102352.41;5045601;28;20406;-92
2021/11/19 10:25:50;;;;;;;93.18;49.35;;;;;;;10.84;100.00;102350.44;5048947;28;20102;-91
2021/11/19 10:28:23;;;;;;;89.50;44.78;;;;;;;10.87;100.00;102352.00;5065991;28;20041;-90
2021/11/19 10:30:52;;;;;;;84.45;43.95;;;;;;;10.89;100.00;102356.28;5066495;28;20131;-92
2021/11/19 10:34:05;;;;;;;81.63;42.90;;;;;;;10.95;100.00;102357.59;5043172;28;20040;-91
2021/11/19 10:36:33;;;;;;;79.25;45.00;;;;;;;10.96;100.00;102354.81;5030506;28;20414;-92
2021/11/19 10:39:01;;;;;;;80.70;40.05;;;;;;;10.99;100.00;102359.91;5060965;28;20894;-88
2021/11/19 10:42:03;;;;;;;74.07;39.78;;;;;;;11.04;100.00;102354.97;5039924;28;20036;-90
2021/11/19 10:45:00;;;;;;;79.85;44.13;;;;;;;11.06;100.00;102350.34;5050718;28;20098;-91
2021/11/19 10:47:36;;;;;;;77.18;40.38;;;;;;;11.09;100.00;102354.59;5060693;28;20041;-90
2021/11/19 10:50:43;;;;;;;70.65;36.47;;;;;;;11.13;100.00;102355.19;5051093;28;20052;-91
2021/11/19 10:53:45;;;;;;;75.80;41.05;;;;;;;11.16;100.00;102354.94;5015245;28;20451;-91
2021/11/19 10:56:30;;;;;;;64.90;34.10;;;;;;;11.18;100.00;102355.66;5005212;28;20096;-91
2021/11/19 10:58:59;;;;;;;70.10;39.05;;;;;;;11.21;100.00;102341.97;4949733;28;20391;-90
2021/11/19 11:01:51;;;;;;;64.78;39.22;;;;;;;11.27;100.00;102357.56;4936064;28;20035;-91
2021/11/19 11:04:32;;;;;;;62.33;33.42;;;;;;;11.27;100.00;102350.34;4926014;29;20096;-90
2021/11/19 11:07:22;;;;;;;57.28;32.47;;;;;;;11.30;100.00;102344.69;4904826;29;20032;-91
2021/11/19 11:09:59;;;;;;;62.17;32.72;;;;;;;11.35;100.00;102335.41;4943033;28;20047;-91
2021/11/19 11:12:46;;;;;;;61.75;33.47;;;;;;;11.38;100.00;102338.69;4937743;28;20042;-90
2021/11/19 11:15:15;;;;;;;59.47;35.35;;;;;;;11.44;100.00;102343.53;4954010;28;20433;-91
2021/11/19 11:18:04;;;;;;;50.35;29.95;;;;;;;11.46;100.00;102328.13;4942706;28;20160;-90